Time;durP1;ratioP1;P1;durP2;ratioP2;P2;SDS_P1;SDS_P2;PMS_P1;PMS_P2;Temp;Humidity;BMP_temperature;BMP_pressure;BME280_temperature;BME280_humidity;BME280_pressure;Samples;Min_cycle;Max_cycle;Signal;HPM_P1;HPM_P2
2023/12/01 00:03:25;;;;;;;70.18;30.52;;;;;;;;;;8171986;29;20059;-94
2023/12/01 00:07:29;;;;;;;45.00;22.42;;;;;;;;;;8149109;29;20134;-94
2023/12/01 00:11:32;;;;;;;52.38;22.80;;;;;;;;;;8140050;29;20606;-94
2023/12/01 00:15:35;;;;;;;53.95;22.38;;;;;;;;;;8144124;29;20067;-93
2023/12/01 00:19:41;;;;;;;56.42;23.08;;;;;;;;;;8160231;29;20044;-94
2023/12/01 00:23:44;;;;;;;91.43;32.00;;;;;;;;;;8159574;29;20062;-94
2023/12/01 00:27:47;;;;;;;89.82;38.95;;;;;;;;;;8152944;29;20488;-94
2023/12/01 00:31:50;;;;;;;79.25;31.55;;;;;;;;;;8161533;29;20142;-95
2023/12/01 00:35:55;;;;;;;67.47;23.90;;;;;;;;;;8153928;29;20060;-94
2023/12/01 00:39:58;;;;;;;56.95;21.30;;;;;;;;;;8129109;29;20131;-93
2023/12/01 00:44:01;;;;;;;50.75;21.33;;;;;;;;;;8167055;29;20080;-93
2023/12/01 00:48:04;;;;;;;59.35;23.65;;;;;;;;;;8161593;29;20102;-93
2023/12/01 00:52:11;;;;;;;52.97;22.60;;;;;;;;;;8175962;29;20412;-94
2023/12/01 00:56:14;;;;;;;56.63;23.38;;;;;;;;;;8176490;29;20055;-94
2023/12/01 01:00:18;;;;;;;53.75;21.90;;;;;;;;;;8149331;29;20060;-93
2023/12/01 01:04:21;;;;;;;72.05;27.40;;;;;;;;;;8163804;29;20051;-93
2023/12/01 01:08:28;;;;;;;47.10;22.50;;;;;;;;;;8155755;29;20052;-93
2023/12/01 01:12:31;;;;;;;142.70;43.03;;;;;;;;;;8165734;29;20165;-93
2023/12/01 01:16:35;;;;;;;64.45;29.88;;;;;;;;;;8154402;29;20083;-93
2023/12/01 01:20:37;;;;;;;69.03;26.42;;;;;;;;;;8168172;29;20052;-92
2023/12/01 01:24:43;;;;;;;65.93;26.75;;;;;;;;;;8143993;29;20413;-93
2023/12/01 01:28:46;;;;;;;60.50;24.40;;;;;;;;;;8163489;29;20317;-93
2023/12/01 01:32:49;;;;;;;60.95;26.42;;;;;;;;;;8177850;29;20046;-92
2023/12/01 01:36:52;;;;;;;44.80;21.58;;;;;;;;;;8148366;29;20417;-92
2023/12/01 01:40:56;;;;;;;58.55;22.80;;;;;;;;;;8157692;29;20419;-92
2023/12/01 01:45:00;;;;;;;51.75;21.70;;;;;;;;;;8145788;29;20067;-92
2023/12/01 01:49:04;;;;;;;54.38;23.65;;;;;;;;;;8172226;29;20078;-92
2023/12/01 01:53:07;;;;;;;46.70;18.77;;;;;;;;;;8142736;29;20405;-93
2023/12/01 01:57:12;;;;;;;45.80;18.67;;;;;;;;;;8157317;29;20135;-92
2023/12/01 02:01:16;;;;;;;39.53;18.65;;;;;;;;;;8172094;29;20134;-91
2023/12/01 02:05:19;;;;;;;75.97;25.15;;;;;;;;;;8146880;29;20067;-92
2023/12/01 02:09:22;;;;;;;127.65;44.05;;;;;;;;;;8163671;29;20066;-91
2023/12/01 02:13:28;;;;;;;44.58;18.85;;;;;;;;;;8155705;29;20080;-92
2023/12/01 02:17:31;;;;;;;45.78;20.48;;;;;;;;;;8142623;29;20115;-92
2023/12/01 02:21:37;;;;;;;76.65;26.30;;;;;;;;;;8155178;29;20074;-92
2023/12/01 02:25:40;;;;;;;86.05;32.22;;;;;;;;;;8144024;29;20060;-92
2023/12/01 02:29:43;;;;;;;102.80;35.70;;;;;;;;;;8153621;29;20062;-91
2023/12/01 02:33:46;;;;;;;54.78;24.55;;;;;;;;;;8170736;29;20051;-92
2023/12/01 02:37:50;;;;;;;51.65;23.15;;;;;;;;;;8144138;29;20066;-92
2023/12/01 02:41:53;;;;;;;23.27;12.50;;;;;;;;;;8151650;29;20108;-92
2023/12/01 02:45:57;;;;;;;20.13;10.60;;;;;;;;;;8169764;29;20103;-92
2023/12/01 02:50:00;;;;;;;31.13;13.88;;;;;;;;;;8157248;29;20062;-92
2023/12/01 02:54:05;;;;;;;30.20;12.57;;;;;;;;;;8143719;29;20432;-93
2023/12/01 02:58:08;;;;;;;55.17;21.50;;;;;;;;;;8160006;29;20064;-91
2023/12/01 03:02:15;;;;;;;61.05;25.60;;;;;;;;;;8149091;29;20552;-92
2023/12/01 03:06:18;;;;;;;44.90;18.63;;;;;;;;;;8166938;29;20088;-92
2023/12/01 03:10:24;;;;;;;40.92;16.20;;;;;;;;;;8146164;29;20195;-92
2023/12/01 03:14:27;;;;;;;51.28;22.52;;;;;;;;;;8168284;29;20065;-90
2023/12/01 03:18:30;;;;;;;51.67;21.55;;;;;;;;;;8171297;29;20424;-90
2023/12/01 03:22:33;;;;;;;50.90;21.00;;;;;;;;;;8167219;29;20468;-91
2023/12/01 03:26:40;;;;;;;40.92;20.15;;;;;;;;;;8162383;29;20416;-91
2023/12/01 03:30:43;;;;;;;52.17;23.80;;;;;;;;;;8125254;29;20072;-90
2023/12/01 03:34:46;;;;;;;53.10;23.63;;;;;;;;;;8142152;29;20055;-91
2023/12/01 03:38:50;;;;;;;57.90;22.90;;;;;;;;;;8152654;29;20102;-90
2023/12/01 03:42:55;;;;;;;38.75;18.92;;;;;;;;;;8157237;29;20148;-91
2023/12/01 03:46:58;;;;;;;44.42;18.88;;;;;;;;;;8141802;29;20572;-91
2023/12/01 03:51:02;;;;;;;50.08;21.23;;;;;;;;;;8173683;29;20419;-90
2023/12/01 03:55:06;;;;;;;58.35;23.88;;;;;;;;;;8180962;29;20078;-91
2023/12/01 03:59:10;;;;;;;47.35;19.85;;;;;;;;;;8150296;29;20119;-91
2023/12/01 04:03:13;;;;;;;41.45;19.35;;;;;;;;;;8174367;29;20055;-91
2023/12/01 04:07:17;;;;;;;49.15;20.95;;;;;;;;;;8149380;29;20049;-90
2023/12/01 04:11:31;;;;;;;30.48;15.52;;;;;;;;;;8147683;29;20081;-91
2023/12/01 04:15:36;;;;;;;51.00;23.00;;;;;;;;;;8153787;29;20052;-91
2023/12/01 04:19:40;;;;;;;47.83;19.20;;;;;;;;;;8169442;29;20106;-91
2023/12/01 04:23:43;;;;;;;41.55;19.85;;;;;;;;;;8148621;29;20137;-91
2023/12/01 04:27:47;;;;;;;48.35;19.52;;;;;;;;;;8134486;29;20056;-90
2023/12/01 04:31:51;;;;;;;47.70;22.45;;;;;;;;;;8151935;29;20084;-91
2023/12/01 04:35:54;;;;;;;32.88;18.67;;;;;;;;;;8146706;29;20552;-90
2023/12/01 04:39:57;;;;;;;51.28;20.05;;;;;;;;;;8165487;29;20524;-91
2023/12/01 04:44:00;;;;;;;53.17;20.50;;;;;;;;;;8169816;29;20146;-91
2023/12/01 04:48:07;;;;;;;36.50;17.23;;;;;;;;;;8157341;29;20622;-91
2023/12/01 04:52:10;;;;;;;45.88;18.67;;;;;;;;;;8159071;29;20419;-92
2023/12/01 04:56:13;;;;;;;49.03;18.02;;;;;;;;;;8151604;29;20052;-90
2023/12/01 05:00:21;;;;;;;51.65;23.10;;;;;;;;;;8163112;29;20056;-90
2023/12/01 05:04:26;;;;;;;32.45;14.00;;;;;;;;;;8151033;29;20493;-91
2023/12/01 05:08:29;;;;;;;49.25;22.25;;;;;;;;;;8153090;29;20062;-91
2023/12/01 05:12:33;;;;;;;64.30;25.48;;;;;;;;;;8154609;29;20143;-90
2023/12/01 05:16:35;;;;;;;45.80;19.58;;;;;;;;;;8152817;29;20568;-91
2023/12/01 05:20:42;;;;;;;42.85;17.50;;;;;;;;;;8171806;29;20063;-91
2023/12/01 05:24:45;;;;;;;40.47;20.35;;;;;;;;;;8141533;29;20055;-90
2023/12/01 05:28:48;;;;;;;55.25;22.15;;;;;;;;;;8156796;29;20188;-90
2023/12/01 05:32:52;;;;;;;53.03;23.23;;;;;;;;;;8141947;29;20052;-91
2023/12/01 05:36:57;;;;;;;30.17;15.95;;;;;;;;;;8146356;29;20076;-90
2023/12/01 05:41:00;;;;;;;32.90;17.60;;;;;;;;;;8148419;29;20142;-91
2023/12/01 05:45:04;;;;;;;26.65;13.20;;;;;;;;;;8141095;29;20078;-91
2023/12/01 05:49:09;;;;;;;31.30;16.33;;;;;;;;;;8168348;29;20058;-90
2023/12/01 05:53:14;;;;;;;47.75;20.92;;;;;;;;;;8172286;29;20067;-90
2023/12/01 05:57:17;;;;;;;62.42;25.48;;;;;;;;;;8167603;29;20588;-91
2023/12/01 06:01:20;;;;;;;74.18;25.70;;;;;;;;;;8150078;29;20142;-90
2023/12/01 06:05:23;;;;;;;83.47;34.25;;;;;;;;;;8162299;29;20060;-90
2023/12/01 06:09:27;;;;;;;98.53;28.08;;;;;;;;;;8154790;29;20518;-90
2023/12/01 06:13:30;;;;;;;57.50;23.98;;;;;;;;;;8155565;29;20138;-90
2023/12/01 06:17:35;;;;;;;30.30;12.85;;;;;;;;;;8168960;29;20060;-90
2023/12/01 06:21:39;;;;;;;30.90;15.43;;;;;;;;;;8158263;29;20083;-90
2023/12/01 06:25:46;;;;;;;34.75;13.90;;;;;;;;;;8170857;29;20051;-90
2023/12/01 06:29:51;;;;;;;45.38;17.35;;;;;;;;;;8161258;29;20150;-90
2023/12/01 06:33:53;;;;;;;155.25;41.10;;;;;;;;;;8146485;29;20134;-91
2023/12/01 06:37:56;;;;;;;49.42;20.95;;;;;;;;;;8155970;29;20257;-90
2023/12/01 06:42:02;;;;;;;74.43;25.77;;;;;;;;;;8161717;29;20112;-91
2023/12/01 06:46:06;;;;;;;41.63;20.40;;;;;;;;;;8211451;28;20055;-91
2023/12/01 06:50:11;;;;;;;57.20;22.58;;;;;;;;;;8218491;28;20063;-91
2023/12/01 06:54:14;;;;;;;177.25;54.00;;;;;;;;;;8214793;29;20082;-92
2023/12/01 06:58:19;;;;;;;105.07;33.70;;;;;;;;;;8163692;29;20052;-91
2023/12/01 07:02:24;;;;;;;61.05;23.95;;;;;;;;;;8169558;29;20059;-92
2023/12/01 07:06:27;;;;;;;48.35;18.80;;;;;;;;;;8153387;29;20135;-90
2023/12/01 07:10:33;;;;;;;47.45;19.10;;;;;;;;;;8187392;29;20078;-87
2023/12/01 07:14:39;;;;;;;49.83;19.23;;;;;;;;;;8140666;29;20060;-88
2023/12/01 07:18:43;;;;;;;103.57;31.38;;;;;;;;;;8158495;29;20056;-88
2023/12/01 07:22:47;;;;;;;107.20;31.95;;;;;;;;;;8166984;29;20079;-88
2023/12/01 07:26:52;;;;;;;105.78;30.45;;;;;;;;;;8161388;29;20059;-90
2023/12/01 07:30:56;;;;;;;71.95;25.58;;;;;;;;;;8196940;29;20107;-90
2023/12/01 07:34:59;;;;;;;52.03;20.52;;;;;;;;;;8168372;29;20138;-89
2023/12/01 07:39:02;;;;;;;51.25;19.48;;;;;;;;;;8168953;29;20059;-90
2023/12/01 07:43:05;;;;;;;55.33;23.08;;;;;;;;;;8168708;29;20127;-90
2023/12/01 07:47:11;;;;;;;60.20;26.48;;;;;;;;;;8169031;29;20063;-92
2023/12/01 07:51:15;;;;;;;88.00;37.70;;;;;;;;;;8170403;29;20066;-93
2023/12/01 07:55:21;;;;;;;97.43;38.20;;;;;;;;;;8154339;29;20083;-92
2023/12/01 07:59:27;;;;;;;139.77;48.25;;;;;;;;;;8153492;29;20066;-91
2023/12/01 08:03:32;;;;;;;132.68;51.67;;;;;;;;;;8152216;29;20056;-90
2023/12/01 08:07:35;;;;;;;84.22;32.92;;;;;;;;;;8123273;29;20063;-92
2023/12/01 08:11:40;;;;;;;82.70;31.23;;;;;;;;;;8162756;29;20059;-92
2023/12/01 08:15:43;;;;;;;97.95;35.20;;;;;;;;;;8177796;29;20082;-93
2023/12/01 08:19:48;;;;;;;80.00;35.58;;;;;;;;;;8202590;29;20135;-94
2023/12/01 08:23:52;;;;;;;146.48;54.60;;;;;;;;;;8160771;29;20060;-94
2023/12/01 08:27:56;;;;;;;120.55;46.67;;;;;;;;;;8128863;29;20049;-93
2023/12/01 08:32:00;;;;;;;196.40;66.65;;;;;;;;;;8114314;29;20056;-93
2023/12/01 08:36:05;;;;;;;328.20;105.18;;;;;;;;;;8125523;29;20063;-92
2023/12/01 08:40:11;;;;;;;263.65;89.20;;;;;;;;;;8141876;29;20069;-92
2023/12/01 08:44:17;;;;;;;226.55;83.82;;;;;;;;;;8148433;29;20056;-92
2023/12/01 08:48:28;;;;;;;132.25;49.80;;;;;;;;;;8150309;29;20064;-95
2023/12/01 08:52:32;;;;;;;89.60;36.42;;;;;;;;;;8149789;29;20111;-89
2023/12/01 08:56:36;;;;;;;68.45;26.83;;;;;;;;;;8145610;29;20094;-93
2023/12/01 09:00:40;;;;;;;63.85;29.10;;;;;;;;;;8129372;29;20092;-92
2023/12/01 09:04:49;;;;;;;58.20;24.30;;;;;;;;;;8149139;29;20099;-92
2023/12/01 09:08:54;;;;;;;74.70;29.27;;;;;;;;;;8145756;29;20154;-94
2023/12/01 09:13:02;;;;;;;153.10;46.92;;;;;;;;;;8161380;29;20060;-93
2023/12/01 09:17:06;;;;;;;209.23;54.30;;;;;;;;;;8159656;29;20075;-89
2023/12/01 09:21:09;;;;;;;95.50;34.45;;;;;;;;;;8144461;29;20059;-93
2023/12/01 09:25:14;;;;;;;79.80;31.52;;;;;;;;;;8144503;29;20168;-93
2023/12/01 09:29:18;;;;;;;93.53;36.15;;;;;;;;;;8197747;29;20098;-93
2023/12/01 09:33:24;;;;;;;295.00;94.70;;;;;;;;;;8203945;29;20055;-93
2023/12/01 09:37:27;;;;;;;129.20;46.58;;;;;;;;;;8177924;29;20056;-94
2023/12/01 09:41:34;;;;;;;99.57;34.80;;;;;;;;;;8205102;29;20103;-94
2023/12/01 09:45:37;;;;;;;82.03;33.25;;;;;;;;;;8175021;29;20059;-94
2023/12/01 09:49:43;;;;;;;201.82;66.05;;;;;;;;;;8146916;29;20128;-93
2023/12/01 09:53:46;;;;;;;98.22;36.38;;;;;;;;;;8166475;29;20134;-93
2023/12/01 09:57:53;;;;;;;309.65;100.50;;;;;;;;;;8173858;29;20055;-94
2023/12/01 10:01:56;;;;;;;127.63;46.90;;;;;;;;;;8169457;29;20066;-95
2023/12/01 10:05:59;;;;;;;109.10;40.28;;;;;;;;;;8182969;29;20060;-94
2023/12/01 10:10:18;;;;;;;107.18;40.28;;;;;;;;;;8156493;29;20055;-94
2023/12/01 10:14:22;;;;;;;117.72;46.10;;;;;;;;;;8171757;29;20064;-95
2023/12/01 10:18:28;;;;;;;127.30;46.92;;;;;;;;;;8156749;29;20078;-96
2023/12/01 10:22:32;;;;;;;126.70;44.72;;;;;;;;;;8167799;29;20055;-96
2023/12/01 10:26:40;;;;;;;121.65;44.28;;;;;;;;;;8173239;29;20075;-95
2023/12/01 10:30:56;;;;;;;126.22;49.95;;;;;;;;;;8157221;29;20063;-94
2023/12/01 10:35:02;;;;;;;139.77;54.33;;;;;;;;;;8173853;29;20059;-94
2023/12/01 10:39:07;;;;;;;111.68;43.63;;;;;;;;;;8173106;29;20107;-95
2023/12/01 10:43:12;;;;;;;112.40;44.35;;;;;;;;;;8173975;29;20055;-96
2023/12/01 10:47:19;;;;;;;108.32;40.22;;;;;;;;;;8155377;29;20071;-95
2023/12/01 10:51:23;;;;;;;114.38;44.95;;;;;;;;;;8171867;29;20080;-95
2023/12/01 10:55:27;;;;;;;122.35;47.30;;;;;;;;;;8130638;29;20155;-95
2023/12/01 10:59:31;;;;;;;98.05;42.63;;;;;;;;;;8144745;29;20063;-93
2023/12/01 11:03:38;;;;;;;94.72;38.80;;;;;;;;;;8138600;29;20191;-92
2023/12/01 11:07:54;;;;;;;98.18;40.97;;;;;;;;;;8157290;29;20099;-96
2023/12/01 11:44:10;;;;;;;80.13;35.15;;;;;;;;;;7785424;30;20190;-95
2023/12/01 11:48:13;;;;;;;91.30;37.40;;;;;;;;;;7764040;30;20065;-94
2023/12/01 11:52:18;;;;;;;82.45;36.35;;;;;;;;;;7777167;30;20073;-94
2023/12/01 11:56:24;;;;;;;89.88;37.83;;;;;;;;;;7776493;30;20563;-94
2023/12/01 12:00:29;;;;;;;108.68;45.88;;;;;;;;;;7788061;30;20418;-94
2023/12/01 12:04:33;;;;;;;127.07;50.65;;;;;;;;;;7803014;30;20069;-90
2023/12/01 12:14:01;;;;;;;76.80;30.52;;;;;;;;;;7838532;29;20039;-96
2023/12/01 12:27:41;;;;;;;54.58;24.33;;;;;;;;;;7924593;29;20089;-96
2023/12/01 12:32:01;;;;;;;57.33;23.13;;;;;;;;;;7992210;29;20063;-96
2023/12/01 12:36:33;;;;;;;63.05;24.27;;;;;;;;;;7973463;29;20062;-96
2023/12/01 12:40:36;;;;;;;57.90;26.10;;;;;;;;;;7976911;29;20207;-95
2023/12/01 12:44:43;;;;;;;66.95;29.63;;;;;;;;;;7991641;29;20066;-95
2023/12/01 12:48:47;;;;;;;57.00;23.88;;;;;;;;;;8064670;29;20155;-95
2023/12/01 12:52:54;;;;;;;58.22;22.83;;;;;;;;;;8064336;29;20057;-95
2023/12/01 12:56:58;;;;;;;56.85;22.80;;;;;;;;;;8073667;29;20057;-94
2023/12/01 13:01:02;;;;;;;58.30;22.90;;;;;;;;;;8096695;29;20056;-95
2023/12/01 13:05:06;;;;;;;58.28;26.23;;;;;;;;;;8138774;23;20060;-95
2023/12/01 13:09:13;;;;;;;63.22;28.08;;;;;;;;;;8176574;29;20056;-94
2023/12/01 13:18:11;;;;;;;49.85;23.80;;;;;;;;;;8186362;29;20155;-94
2023/12/01 13:22:15;;;;;;;56.92;24.60;;;;;;;;;;8163212;29;20412;-94
2023/12/01 13:31:38;;;;;;;80.28;32.97;;;;;;;;;;8144255;29;20432;-95
2023/12/01 13:35:47;;;;;;;63.40;26.98;;;;;;;;;;8084485;29;20061;-96
2023/12/01 13:40:14;;;;;;;60.85;25.70;;;;;;;;;;8037737;29;20193;-92
2023/12/01 13:44:17;;;;;;;61.90;27.13;;;;;;;;;;8077018;29;20117;-94
2023/12/01 13:48:22;;;;;;;63.50;26.58;;;;;;;;;;8075756;29;20053;-94
2023/12/01 13:52:27;;;;;;;53.28;25.05;;;;;;;;;;8080118;29;20199;-95
2023/12/01 13:56:30;;;;;;;63.13;26.05;;;;;;;;;;8174355;29;20061;-96
2023/12/01 14:00:33;;;;;;;59.78;24.55;;;;;;;;;;8174828;29;20140;-96
2023/12/01 14:19:33;;;;;;;71.68;28.20;;;;;;;;;;1285223;23;20243;-89
2023/12/01 15:16:05;;;;;;;;;;;;;;;;;;;;;
2023/12/01 15:40:01;;;;;;;127.55;46.55;;;;;;;;;;10335137;22;2815252;-90
2023/12/01 15:44:05;;;;;;;124.03;48.78;;;;;;;;;;10473722;22;20019;-91
2023/12/01 15:48:08;;;;;;;137.10;52.65;;;;;;;;;;10451078;22;20090;-91
2023/12/01 15:52:11;;;;;;;138.20;51.67;;;;;;;;;;10452269;22;20090;-90
2023/12/01 15:56:15;;;;;;;139.48;57.20;;;;;;;;;;10454217;22;20389;-89
2023/12/01 16:00:19;;;;;;;145.15;56.67;;;;;;;;;;10453663;22;20023;-90
2023/12/01 16:04:22;;;;;;;151.38;59.63;;;;;;;;;;10453693;22;20015;-90
2023/12/01 16:08:25;;;;;;;174.75;68.10;;;;;;;;;;10453714;22;20022;-90
2023/12/01 16:12:30;;;;;;;157.88;58.97;;;;;;;;;;10453692;22;20042;-89
2023/12/01 16:16:33;;;;;;;138.95;50.42;;;;;;;;;;10453450;22;20466;-90
2023/12/01 16:20:41;;;;;;;130.52;48.55;;;;;;;;;;10453851;22;20328;-90
2023/12/01 16:24:48;;;;;;;91.47;38.17;;;;;;;;;;10470642;22;20402;-90
2023/12/01 16:28:53;;;;;;;100.72;40.58;;;;;;;;;;10470600;22;20026;-90
2023/12/01 16:32:55;;;;;;;108.97;42.17;;;;;;;;;;10425815;22;20023;-91
2023/12/01 16:36:58;;;;;;;105.95;39.60;;;;;;;;;;10441403;22;20019;-90
2023/12/01 16:41:02;;;;;;;107.85;40.75;;;;;;;;;;10441883;22;20023;-90
2023/12/01 16:45:07;;;;;;;98.80;40.05;;;;;;;;;;10441659;22;20085;-91
2023/12/01 16:49:10;;;;;;;80.72;36.95;;;;;;;;;;10459288;22;20019;-91
2023/12/01 16:53:13;;;;;;;102.95;38.53;;;;;;;;;;10442248;22;20019;-91
2023/12/01 16:57:17;;;;;;;116.93;44.03;;;;;;;;;;10442338;22;20015;-90
2023/12/01 17:01:22;;;;;;;130.23;45.22;;;;;;;;;;10414883;22;20015;-90
2023/12/01 17:05:25;;;;;;;118.53;44.10;;;;;;;;;;10442098;22;20026;-91
2023/12/01 17:09:29;;;;;;;92.70;36.80;;;;;;;;;;10441795;22;20068;-91
2023/12/01 17:13:32;;;;;;;109.40;40.42;;;;;;;;;;10442650;22;20459;-91
2023/12/01 17:17:36;;;;;;;117.50;44.03;;;;;;;;;;10441670;22;20019;-90
2023/12/01 17:21:39;;;;;;;99.68;36.47;;;;;;;;;;10441544;22;20019;-90
2023/12/01 17:25:42;;;;;;;96.63;37.45;;;;;;;;;;10441951;22;20015;-90
2023/12/01 17:29:45;;;;;;;114.10;41.65;;;;;;;;;;10441687;22;20046;-90
2023/12/01 17:33:50;;;;;;;171.82;62.20;;;;;;;;;;10441346;22;20356;-91
2023/12/01 17:37:54;;;;;;;141.75;52.25;;;;;;;;;;10446183;22;20025;-90
2023/12/01 17:41:57;;;;;;;122.55;45.42;;;;;;;;;;10455263;22;20026;-89
2023/12/01 17:46:00;;;;;;;88.32;37.25;;;;;;;;;;10441995;22;20015;-91
2023/12/01 17:50:06;;;;;;;93.40;37.58;;;;;;;;;;10442062;22;20105;-91
2023/12/01 17:54:09;;;;;;;87.20;36.13;;;;;;;;;;10414310;22;20023;-90
2023/12/01 17:58:12;;;;;;;99.88;36.38;;;;;;;;;;10443087;22;20019;-91
2023/12/01 18:02:15;;;;;;;114.32;38.85;;;;;;;;;;10441502;22;20012;-90
2023/12/01 18:06:20;;;;;;;101.13;35.90;;;;;;;;;;10442240;22;20098;-91
2023/12/01 18:10:23;;;;;;;147.02;52.53;;;;;;;;;;10442285;22;20045;-90
2023/12/01 18:14:26;;;;;;;124.43;45.10;;;;;;;;;;10442016;22;20023;-90
2023/12/01 18:18:40;;;;;;;212.05;71.55;;;;;;;;;;10444636;22;20023;-90
2023/12/01 18:22:44;;;;;;;194.48;64.43;;;;;;;;;;10412572;22;20023;-90
2023/12/01 18:26:48;;;;;;;109.82;45.83;;;;;;;;;;10413318;22;20086;-90
2023/12/01 18:30:52;;;;;;;102.82;40.53;;;;;;;;;;10441441;22;20023;-91
2023/12/01 18:34:54;;;;;;;86.13;31.95;;;;;;;;;;10414056;22;20531;-90
2023/12/01 18:38:59;;;;;;;99.38;35.22;;;;;;;;;;10440577;22;20019;-91
2023/12/01 18:43:02;;;;;;;122.05;41.03;;;;;;;;;;10413802;22;20045;-90
2023/12/01 18:47:06;;;;;;;130.00;45.42;;;;;;;;;;10440578;22;20492;-89
2023/12/01 18:51:09;;;;;;;100.10;37.15;;;;;;;;;;10442125;22;20019;-90
2023/12/01 18:55:15;;;;;;;92.00;34.45;;;;;;;;;;10443789;22;20450;-91
2023/12/01 18:59:18;;;;;;;93.97;37.08;;;;;;;;;;10459298;22;20015;-91
2023/12/01 19:03:21;;;;;;;110.82;37.70;;;;;;;;;;10442221;22;20022;-91
2023/12/01 19:07:25;;;;;;;100.55;36.00;;;;;;;;;;10413560;22;20015;-90
2023/12/01 19:11:29;;;;;;;95.47;33.08;;;;;;;;;;10439785;22;20015;-90
2023/12/01 19:15:32;;;;;;;96.07;32.90;;;;;;;;;;10440203;22;20019;-90
2023/12/01 19:19:35;;;;;;;68.38;29.52;;;;;;;;;;10440298;22;20098;-90
2023/12/01 19:23:39;;;;;;;73.78;29.55;;;;;;;;;;10441332;22;20045;-90
2023/12/01 19:27:44;;;;;;;83.78;32.50;;;;;;;;;;10440967;22;20023;-90
2023/12/01 19:31:48;;;;;;;131.57;39.70;;;;;;;;;;10439773;22;20047;-90
2023/12/01 19:35:52;;;;;;;86.25;31.08;;;;;;;;;;10439807;22;20530;-90
2023/12/01 19:39:55;;;;;;;60.40;20.48;;;;;;;;;;10440625;22;20340;-91
2023/12/01 19:44:00;;;;;;;70.07;26.73;;;;;;;;;;10446735;22;20049;-90
2023/12/01 19:48:05;;;;;;;126.93;36.15;;;;;;;;;;10457408;22;20026;-91
2023/12/01 19:52:09;;;;;;;133.77;39.50;;;;;;;;;;10441450;22;20015;-90
2023/12/01 19:56:13;;;;;;;63.05;26.38;;;;;;;;;;10444265;22;20016;-90
2023/12/01 20:00:19;;;;;;;58.92;25.77;;;;;;;;;;10443922;22;20351;-91
2023/12/01 20:04:22;;;;;;;62.78;27.92;;;;;;;;;;10457904;22;20019;-91
2023/12/01 20:08:25;;;;;;;91.03;35.67;;;;;;;;;;10440596;22;20015;-91
2023/12/01 20:12:30;;;;;;;103.38;40.33;;;;;;;;;;10416525;22;20019;-93
2023/12/01 20:16:37;;;;;;;75.82;36.90;;;;;;;;;;10418012;22;20019;-91
2023/12/01 20:20:40;;;;;;;131.63;45.40;;;;;;;;;;10444646;22;20063;-89
2023/12/01 20:24:44;;;;;;;55.97;25.40;;;;;;;;;;10443993;22;20027;-92
2023/12/01 20:28:58;;;;;;;293.13;79.43;;;;;;;;;;10454614;22;20376;-94
2023/12/01 20:33:27;;;;;;;67.63;27.58;;;;;;;;;;10409326;22;20015;-95
2023/12/01 20:37:38;;;;;;;45.17;20.88;;;;;;;;;;10392643;22;20020;-91
2023/12/01 20:41:46;;;;;;;47.35;19.33;;;;;;;;;;10394458;22;20020;-94
2023/12/01 20:45:52;;;;;;;187.35;46.13;;;;;;;;;;10395211;22;20016;-94
2023/12/01 20:49:59;;;;;;;406.05;99.60;;;;;;;;;;10400736;22;20016;-94
2023/12/01 20:54:03;;;;;;;225.32;62.58;;;;;;;;;;10403756;22;20020;-94
2023/12/01 20:58:08;;;;;;;211.60;54.50;;;;;;;;;;10408167;22;20020;-93
2023/12/01 21:02:12;;;;;;;342.40;77.15;;;;;;;;;;10409419;22;20020;-94
2023/12/01 21:06:18;;;;;;;235.43;57.60;;;;;;;;;;10408924;22;20026;-94
2023/12/01 21:10:24;;;;;;;179.15;46.35;;;;;;;;;;10408188;22;20028;-92
2023/12/01 21:14:29;;;;;;;57.10;24.85;;;;;;;;;;10402745;22;20447;-94
2023/12/01 21:18:35;;;;;;;141.63;38.22;;;;;;;;;;10299405;23;20027;-93
2023/12/01 21:22:40;;;;;;;88.45;27.58;;;;;;;;;;10277972;23;20024;-94
2023/12/01 21:26:46;;;;;;;73.13;28.00;;;;;;;;;;10310400;23;20043;-93
2023/12/01 21:30:52;;;;;;;51.13;22.13;;;;;;;;;;10279673;23;20028;-93
2023/12/01 21:35:01;;;;;;;39.67;16.60;;;;;;;;;;10307129;22;20019;-92
2023/12/01 21:39:13;;;;;;;38.05;15.07;;;;;;;;;;10408269;22;20077;-94
2023/12/01 21:43:18;;;;;;;28.60;14.07;;;;;;;;;;10413900;22;20012;-95
2023/12/01 21:47:24;;;;;;;37.00;15.55;;;;;;;;;;10415156;22;20020;-95
2023/12/01 21:51:28;;;;;;;30.77;15.60;;;;;;;;;;10413421;22;20356;-93
2023/12/01 21:55:37;;;;;;;36.65;17.35;;;;;;;;;;10409588;22;20031;-94
2023/12/01 21:59:41;;;;;;;34.25;15.93;;;;;;;;;;10408022;22;20016;-94
2023/12/01 22:03:45;;;;;;;32.72;15.23;;;;;;;;;;10409814;22;20008;-93
2023/12/01 22:07:50;;;;;;;36.53;15.23;;;;;;;;;;10413870;22;20042;-93
2023/12/01 22:11:58;;;;;;;37.97;16.42;;;;;;;;;;10411707;22;20347;-93
2023/12/01 22:16:04;;;;;;;35.78;14.88;;;;;;;;;;10409013;22;20022;-93
2023/12/01 22:20:10;;;;;;;42.90;18.30;;;;;;;;;;10406208;22;20016;-94
2023/12/01 22:24:13;;;;;;;55.47;21.52;;;;;;;;;;10378761;22;20019;-93
2023/12/01 22:28:20;;;;;;;53.78;22.30;;;;;;;;;;10399561;22;20391;-93
2023/12/01 22:32:24;;;;;;;46.70;19.55;;;;;;;;;;10427722;22;20047;-94
2023/12/01 22:36:28;;;;;;;70.38;23.85;;;;;;;;;;10442367;22;20068;-94
2023/12/01 22:40:31;;;;;;;47.15;17.73;;;;;;;;;;10414898;22;20015;-94
2023/12/01 22:44:37;;;;;;;60.05;23.42;;;;;;;;;;10442365;22;20064;-94
2023/12/01 22:48:42;;;;;;;56.88;19.23;;;;;;;;;;10442731;22;20023;-94
2023/12/01 22:52:45;;;;;;;70.07;22.38;;;;;;;;;;10442264;22;20034;-95
2023/12/01 22:56:49;;;;;;;33.85;13.25;;;;;;;;;;10442207;22;20049;-94
2023/12/01 23:00:54;;;;;;;35.40;13.25;;;;;;;;;;10443229;22;20022;-94
2023/12/01 23:04:59;;;;;;;26.50;11.70;;;;;;;;;;10442428;22;20079;-94
2023/12/01 23:09:04;;;;;;;31.52;13.75;;;;;;;;;;10463014;22;20019;-92
2023/12/01 23:13:07;;;;;;;31.05;13.43;;;;;;;;;;10463784;22;20031;-93
2023/12/01 23:17:12;;;;;;;35.72;13.90;;;;;;;;;;10418440;22;20021;-94
2023/12/01 23:21:15;;;;;;;31.40;15.15;;;;;;;;;;10442632;22;20347;-94
2023/12/01 23:25:20;;;;;;;29.17;12.27;;;;;;;;;;10416548;22;20027;-93
2023/12/01 23:29:28;;;;;;;42.67;16.15;;;;;;;;;;10417347;22;20015;-93
2023/12/01 23:33:33;;;;;;;37.63;15.75;;;;;;;;;;10444679;22;20436;-93
2023/12/01 23:37:37;;;;;;;41.33;15.88;;;;;;;;;;10445789;22;20352;-93
2023/12/01 23:41:43;;;;;;;36.83;15.55;;;;;;;;;;10442937;22;20038;-93
2023/12/01 23:45:49;;;;;;;40.95;16.60;;;;;;;;;;10416648;22;20094;-93
2023/12/01 23:49:54;;;;;;;50.60;19.38;;;;;;;;;;10447938;22;20339;-93
2023/12/01 23:53:57;;;;;;;48.85;18.80;;;;;;;;;;10449690;22;20015;-93
2023/12/01 23:58:01;;;;;;;37.85;15.27;;;;;;;;;;10448971;22;20022;-93
